createdAt,value
2018-10-17T00:00:23.487Z,5.63
2018-10-17T00:02:51.602Z,5.53
2018-10-17T00:05:19.750Z,5.20
2018-10-17T00:07:47.860Z,5.40
2018-10-17T00:10:15.961Z,5.60
2018-10-17T00:12:44.095Z,5.13
2018-10-17T00:15:12.196Z,5.37
2018-10-17T00:17:40.310Z,5.50
2018-10-17T00:20:09.634Z,5.83
2018-10-17T00:22:37.725Z,5.30
2018-10-17T00:25:06.336Z,4.93
2018-10-17T00:27:34.503Z,5.33
2018-10-17T00:30:02.591Z,6.13
2018-10-17T00:32:30.691Z,5.20
2018-10-17T00:34:58.811Z,6.37
2018-10-17T00:37:26.939Z,5.83
2018-10-17T00:39:55.125Z,6.27
2018-10-17T00:42:23.244Z,6.00
2018-10-17T00:44:51.768Z,6.10
2018-10-17T00:47:20.395Z,5.80
2018-10-17T00:49:48.933Z,5.70
2018-10-17T00:52:17.318Z,6.23
2018-10-17T00:54:45.793Z,6.87
2018-10-17T00:57:14.404Z,6.23
2018-10-17T00:59:42.912Z,6.30
2018-10-17T01:02:11.517Z,6.77
2018-10-17T01:04:40.161Z,6.47
2018-10-17T01:07:08.674Z,6.97
2018-10-17T01:09:37.275Z,6.27
2018-10-17T01:12:05.806Z,6.17
2018-10-17T01:14:34.519Z,5.70
2018-10-17T01:17:03.125Z,6.53
2018-10-17T01:19:31.871Z,6.77
2018-10-17T01:21:59.981Z,5.90
2018-10-17T01:24:28.074Z,6.23
2018-10-17T01:26:56.794Z,7.30
2018-10-17T01:29:25.686Z,6.20
2018-10-17T01:31:54.073Z,5.90
2018-10-17T01:34:22.493Z,5.80
2018-10-17T01:36:51.065Z,6.30
2018-10-17T01:39:19.567Z,6.60
2018-10-17T01:41:47.807Z,5.73
2018-10-17T01:44:16.439Z,7.07
2018-10-17T01:46:44.834Z,6.60
2018-10-17T01:49:13.460Z,6.27
2018-10-17T01:51:42.053Z,6.07
2018-10-17T01:54:10.572Z,6.93
2018-10-17T01:56:39.156Z,6.67
2018-10-17T01:59:07.651Z,7.23
2018-10-17T02:01:36.403Z,6.80
2018-10-17T02:04:04.929Z,6.77
2018-10-17T02:06:33.585Z,7.20
2018-10-17T02:09:02.318Z,6.50
2018-10-17T02:11:31.010Z,6.27
2018-10-17T02:13:59.598Z,6.93
2018-10-17T02:16:28.222Z,5.93
2018-10-17T02:18:56.972Z,6.50
2018-10-17T02:21:25.551Z,6.90
2018-10-17T02:23:53.749Z,6.40
2018-10-17T02:26:22.341Z,6.17
2018-10-17T02:28:50.932Z,6.40
2018-10-17T02:31:19.507Z,6.17
2018-10-17T02:33:47.794Z,6.03
2018-10-17T02:36:16.275Z,5.60
2018-10-17T02:38:44.870Z,7.20
2018-10-17T02:41:13.448Z,6.20
2018-10-17T02:43:41.824Z,6.53
2018-10-17T02:46:10.399Z,6.00
2018-10-17T02:48:38.721Z,7.20
2018-10-17T02:51:07.283Z,7.33
2018-10-17T02:53:35.909Z,7.20
2018-10-17T02:56:04.560Z,7.70
2018-10-17T02:58:33.131Z,7.50
2018-10-17T03:01:01.756Z,7.53
2018-10-17T03:03:30.251Z,7.00
2018-10-17T03:05:58.469Z,6.37
2018-10-17T03:08:26.987Z,6.77
2018-10-17T03:10:55.506Z,6.77
2018-10-17T03:13:24.190Z,6.30
2018-10-17T03:15:52.844Z,6.17
2018-10-17T03:18:21.337Z,7.00
2018-10-17T03:20:49.882Z,6.00
2018-10-17T03:23:18.675Z,7.17
2018-10-17T03:25:47.389Z,6.17
2018-10-17T03:28:16.033Z,6.33
2018-10-17T03:30:44.454Z,6.13
2018-10-17T03:33:13.107Z,6.60
2018-10-17T03:35:41.750Z,6.83
2018-10-17T03:38:10.100Z,6.40
2018-10-17T03:40:38.544Z,5.40
2018-10-17T03:43:07.269Z,6.70
2018-10-17T03:45:35.792Z,6.50
2018-10-17T03:48:05.098Z,6.53
2018-10-17T03:50:33.749Z,5.40
2018-10-17T03:53:02.979Z,6.03
2018-10-17T03:55:31.601Z,6.00
2018-10-17T03:58:00.336Z,6.50
2018-10-17T04:00:29.131Z,5.63
2018-10-17T04:02:57.823Z,6.70
2018-10-17T04:05:26.320Z,6.47
2018-10-17T04:07:54.443Z,7.07
2018-10-17T04:10:23.003Z,6.27
2018-10-17T04:12:51.449Z,5.77
2018-10-17T04:15:20.264Z,5.63
2018-10-17T04:17:48.990Z,6.10
2018-10-17T04:20:17.594Z,5.80
2018-10-17T04:22:51.230Z,6.27
2018-10-17T04:25:19.737Z,8.37
2018-10-17T04:27:48.334Z,6.30
2018-10-17T04:30:17.023Z,5.70
2018-10-17T04:32:45.869Z,6.20
2018-10-17T04:35:14.689Z,6.80
2018-10-17T04:37:43.629Z,6.33
2018-10-17T04:40:12.302Z,5.97
2018-10-17T04:42:41.160Z,6.47
2018-10-17T04:45:09.962Z,6.93
2018-10-17T04:47:38.720Z,6.53
2018-10-17T04:50:08.586Z,8.00
2018-10-17T04:52:37.356Z,7.27
2018-10-17T04:55:07.245Z,7.43
2018-10-17T04:57:36.876Z,6.60
2018-10-17T05:00:08.405Z,6.20
2018-10-17T05:02:37.300Z,6.93
2018-10-17T05:05:06.483Z,6.73
2018-10-17T05:07:36.568Z,6.93
2018-10-17T05:10:05.563Z,6.83
2018-10-17T05:12:34.451Z,7.03
2018-10-17T05:15:03.044Z,7.67
2018-10-17T05:17:31.733Z,7.40
2018-10-17T05:20:00.469Z,6.80
2018-10-17T05:22:29.181Z,7.80
2018-10-17T05:24:58.323Z,6.93
2018-10-17T05:27:27.085Z,7.47
2018-10-17T05:29:55.716Z,7.73
2018-10-17T05:32:24.337Z,7.47
2018-10-17T05:34:53.036Z,8.47
2018-10-17T05:37:21.980Z,7.53
2018-10-17T05:39:50.633Z,7.83
2018-10-17T05:42:19.198Z,6.43
2018-10-17T05:44:47.721Z,7.50
2018-10-17T05:47:16.949Z,7.30
2018-10-17T05:49:45.553Z,7.17
2018-10-17T05:52:14.155Z,8.33
2018-10-17T05:54:42.802Z,8.77
2018-10-17T05:57:11.634Z,7.80
2018-10-17T05:59:40.855Z,7.60
2018-10-17T06:02:13.695Z,6.63
2018-10-17T06:04:42.329Z,5.97
2018-10-17T06:07:11.202Z,7.80
2018-10-17T06:09:40.098Z,7.93
2018-10-17T06:12:08.827Z,8.37
2018-10-17T06:14:37.360Z,6.67
2018-10-17T06:17:06.358Z,6.37
2018-10-17T06:19:35.237Z,5.20
2018-10-17T06:22:04.023Z,6.33
2018-10-17T06:24:32.705Z,7.07
2018-10-17T06:27:01.740Z,5.70
2018-10-17T06:29:30.602Z,5.77
2018-10-17T06:31:59.367Z,7.60
2018-10-17T06:34:27.710Z,7.73
2018-10-17T06:36:56.765Z,7.43
2018-10-17T06:39:25.563Z,7.87
2018-10-17T06:41:53.952Z,6.83
2018-10-17T06:44:22.955Z,7.87
2018-10-17T06:46:51.868Z,6.77
2018-10-17T06:49:20.377Z,7.20
2018-10-17T06:51:48.907Z,7.80
2018-10-17T06:54:18.049Z,8.60
2018-10-17T06:56:47.295Z,7.90
2018-10-17T06:59:16.015Z,8.37
2018-10-17T07:01:44.805Z,8.03
2018-10-17T07:04:13.762Z,8.57
2018-10-17T07:06:42.561Z,8.03
2018-10-17T07:09:11.742Z,7.63
2018-10-17T07:11:40.764Z,8.40
2018-10-17T07:14:09.492Z,6.50
2018-10-17T07:16:38.057Z,6.93
2018-10-17T07:19:06.724Z,7.27
2018-10-17T07:21:35.563Z,7.13
2018-10-17T07:24:04.451Z,6.17
2018-10-17T07:26:33.275Z,6.50
2018-10-17T07:29:02.146Z,7.03
2018-10-17T07:31:30.939Z,6.47
2018-10-17T07:33:59.475Z,6.80
2018-10-17T07:36:28.057Z,6.50
2018-10-17T07:38:56.885Z,6.77
2018-10-17T07:41:25.691Z,6.67
2018-10-17T07:43:54.682Z,6.17
2018-10-17T07:46:22.997Z,6.73
2018-10-17T07:48:51.765Z,6.10
2018-10-17T07:51:20.373Z,6.23
2018-10-17T07:53:49.013Z,6.67
2018-10-17T07:56:17.277Z,5.90
2018-10-17T07:58:46.067Z,6.80
2018-10-17T08:01:14.780Z,7.07
2018-10-17T08:03:43.429Z,6.43
2018-10-17T08:06:12.145Z,7.13
2018-10-17T08:08:40.714Z,6.90
2018-10-17T08:11:10.162Z,7.13
2018-10-17T08:13:38.629Z,8.30
2018-10-17T08:16:06.847Z,7.53
2018-10-17T08:18:35.070Z,6.53
2018-10-17T08:21:03.259Z,6.73
2018-10-17T08:23:31.787Z,6.33
2018-10-17T08:26:00.404Z,6.30
2018-10-17T08:28:29.086Z,5.97
2018-10-17T08:30:57.819Z,6.03
2018-10-17T08:33:26.510Z,6.83
2018-10-17T08:35:54.817Z,6.27
2018-10-17T08:38:23.150Z,6.10
2018-10-17T08:40:51.429Z,5.87
2018-10-17T08:43:20.759Z,6.17
2018-10-17T08:45:49.173Z,5.83
2018-10-17T08:48:17.573Z,5.83
2018-10-17T08:50:45.891Z,6.20
2018-10-17T08:53:14.253Z,5.73
2018-10-17T08:55:42.552Z,5.40
2018-10-17T08:58:10.809Z,5.87
2018-10-17T09:00:39.038Z,5.23
2018-10-17T09:03:07.452Z,4.83
2018-10-17T09:05:35.758Z,4.83
2018-10-17T09:08:04.075Z,5.13
2018-10-17T09:10:32.405Z,4.60
2018-10-17T09:13:00.729Z,4.53
2018-10-17T09:15:28.951Z,4.90
2018-10-17T09:17:57.341Z,5.17
2018-10-17T09:20:25.796Z,4.83
2018-10-17T09:22:54.078Z,4.43
2018-10-17T09:25:22.364Z,4.97
2018-10-17T09:27:50.728Z,4.97
2018-10-17T09:30:19.106Z,4.60
2018-10-17T09:32:47.270Z,4.70
2018-10-17T09:35:15.737Z,5.40
2018-10-17T09:37:44.049Z,4.90
2018-10-17T09:40:12.406Z,5.23
2018-10-17T09:42:41.208Z,5.00
2018-10-17T09:45:11.080Z,4.90
2018-10-17T09:47:39.684Z,5.33
2018-10-17T09:50:10.404Z,5.07
2018-10-17T09:52:39.525Z,4.97
2018-10-17T09:55:08.681Z,5.60
2018-10-17T09:57:37.036Z,5.10
2018-10-17T10:00:11.476Z,4.33
2018-10-17T10:02:39.793Z,6.63
2018-10-17T10:05:08.508Z,6.13
2018-10-17T10:07:36.975Z,5.07
2018-10-17T10:10:06.343Z,5.13
2018-10-17T10:12:34.770Z,4.63
2018-10-17T10:15:03.263Z,5.27
2018-10-17T10:17:31.740Z,5.50
2018-10-17T10:19:59.982Z,4.80
2018-10-17T10:22:28.774Z,5.60
2018-10-17T10:24:57.608Z,5.13
2018-10-17T10:27:26.181Z,5.73
2018-10-17T10:29:54.462Z,5.10
2018-10-17T10:32:22.685Z,5.47
2018-10-17T10:34:50.865Z,5.90
2018-10-17T10:37:18.997Z,4.83
2018-10-17T10:39:47.573Z,5.80
2018-10-17T10:42:15.815Z,5.50
2018-10-17T10:44:43.874Z,5.80
2018-10-17T10:47:12.091Z,4.77
2018-10-17T10:49:40.545Z,5.27
2018-10-17T10:52:08.970Z,4.43
2018-10-17T10:54:37.176Z,5.03
2018-10-17T10:57:05.644Z,5.17
2018-10-17T10:59:34.063Z,4.47
2018-10-17T11:02:02.301Z,5.20
2018-10-17T11:04:30.819Z,5.30
2018-10-17T11:06:59.249Z,4.90
2018-10-17T11:09:27.488Z,4.50
2018-10-17T11:11:55.742Z,4.30
2018-10-17T11:14:23.957Z,4.70
2018-10-17T11:16:52.098Z,4.13
2018-10-17T11:19:20.434Z,4.70
2018-10-17T11:21:48.725Z,5.07
2018-10-17T11:24:16.957Z,4.57
2018-10-17T11:26:44.999Z,4.80
2018-10-17T11:29:13.334Z,4.63
2018-10-17T11:31:41.436Z,4.90
2018-10-17T11:34:09.742Z,3.83
2018-10-17T11:36:38.103Z,4.37
2018-10-17T11:39:08.754Z,4.90
2018-10-17T11:41:36.989Z,4.10
2018-10-17T11:44:05.094Z,4.73
2018-10-17T11:46:33.549Z,4.77
2018-10-17T11:49:02.310Z,4.67
2018-10-17T11:51:30.382Z,5.00
2018-10-17T11:53:58.486Z,4.87
2018-10-17T11:56:27.001Z,4.93
2018-10-17T11:58:55.253Z,4.63
2018-10-17T12:01:23.654Z,3.90
2018-10-17T12:03:52.075Z,4.57
2018-10-17T12:06:20.090Z,4.40
2018-10-17T12:08:48.327Z,5.03
2018-10-17T12:11:16.481Z,4.77
2018-10-17T12:13:45.323Z,4.60
2018-10-17T12:16:13.567Z,4.90
2018-10-17T12:18:41.633Z,4.93
2018-10-17T12:21:09.973Z,4.47
2018-10-17T12:23:38.091Z,4.90
2018-10-17T12:26:06.153Z,4.97
2018-10-17T12:28:34.465Z,5.93
2018-10-17T12:31:03.072Z,4.70
2018-10-17T12:33:31.270Z,5.87
2018-10-17T12:35:59.380Z,6.83
2018-10-17T12:38:27.780Z,6.07
2018-10-17T12:40:56.497Z,5.10
2018-10-17T12:43:24.482Z,5.13
2018-10-17T12:45:52.896Z,4.97
2018-10-17T12:48:21.442Z,5.83
2018-10-17T12:50:49.585Z,5.50
2018-10-17T12:53:18.082Z,5.10
2018-10-17T12:55:46.308Z,4.97
2018-10-17T12:58:14.434Z,5.17
2018-10-17T13:00:42.920Z,5.07
2018-10-17T13:03:10.983Z,7.83
2018-10-17T13:05:39.598Z,8.63
2018-10-17T13:08:07.912Z,5.53
2018-10-17T13:10:36.205Z,4.83
2018-10-17T13:13:05.180Z,4.83
2018-10-17T13:15:33.613Z,4.40
2018-10-17T13:18:01.940Z,4.90
2018-10-17T13:20:30.763Z,4.67
2018-10-17T13:22:59.121Z,4.47
2018-10-17T13:25:27.391Z,5.00
2018-10-17T13:27:55.902Z,4.93
2018-10-17T13:30:24.594Z,4.73
2018-10-17T13:32:52.995Z,4.77
2018-10-17T13:35:21.132Z,4.37
2018-10-17T13:37:49.405Z,5.00
2018-10-17T13:40:17.942Z,3.83
2018-10-17T13:42:46.092Z,3.00
2018-10-17T13:45:14.147Z,3.30
2018-10-17T13:47:42.391Z,3.60
2018-10-17T13:50:10.669Z,3.80
2018-10-17T13:52:38.800Z,3.70
2018-10-17T13:55:07.501Z,3.47
2018-10-17T13:57:35.757Z,3.53
2018-10-17T14:00:04.270Z,4.97
2018-10-17T14:02:32.491Z,3.60
2018-10-17T14:05:00.513Z,3.50
2018-10-17T14:07:28.532Z,4.37
2018-10-17T14:09:57.211Z,3.20
2018-10-17T14:12:25.397Z,4.10
2018-10-17T14:14:53.894Z,4.10
2018-10-17T14:17:22.026Z,3.50
2018-10-17T14:19:50.394Z,3.57
2018-10-17T14:22:19.005Z,3.13
2018-10-17T14:24:47.214Z,4.07
2018-10-17T14:27:15.453Z,2.93
2018-10-17T14:29:43.786Z,2.90
2018-10-17T14:32:11.894Z,3.10
2018-10-17T14:34:40.037Z,3.93
2018-10-17T14:37:08.412Z,3.40
2018-10-17T14:39:36.560Z,3.63
2018-10-17T14:42:05.206Z,3.50
2018-10-17T14:44:33.278Z,3.07
2018-10-17T14:47:01.405Z,3.13
2018-10-17T14:49:29.648Z,3.00
2018-10-17T14:51:57.869Z,3.80
2018-10-17T14:54:25.993Z,3.00
2018-10-17T14:56:54.080Z,2.73
2018-10-17T14:59:22.355Z,3.00
2018-10-17T15:01:50.820Z,3.30
2018-10-17T15:04:18.890Z,3.10
2018-10-17T15:06:47.749Z,3.43
2018-10-17T15:09:16.156Z,3.23
2018-10-17T15:11:44.417Z,3.00
2018-10-17T15:14:12.526Z,3.27
2018-10-17T15:16:40.630Z,2.83
2018-10-17T15:19:08.696Z,2.87
2018-10-17T15:21:36.803Z,3.20
2018-10-17T15:24:05.059Z,2.77
2018-10-17T15:26:33.523Z,3.10
2018-10-17T15:29:01.590Z,3.47
2018-10-17T15:31:29.787Z,2.90
2018-10-17T15:33:57.795Z,3.30
2018-10-17T15:36:26.050Z,3.03
2018-10-17T15:38:54.273Z,2.50
2018-10-17T15:41:22.286Z,3.70
2018-10-17T15:43:50.522Z,3.37
2018-10-17T15:46:18.577Z,3.20
2018-10-17T15:48:47.132Z,3.07
2018-10-17T15:51:15.626Z,2.63
2018-10-17T15:53:43.698Z,3.20
2018-10-17T15:56:11.579Z,2.60
2018-10-17T15:58:39.931Z,3.30
2018-10-17T16:01:08.330Z,3.53
2018-10-17T16:03:36.361Z,2.83
2018-10-17T16:06:04.876Z,2.67
2018-10-17T16:08:32.960Z,3.00
2018-10-17T16:11:03.327Z,3.03
2018-10-17T16:13:31.853Z,3.07
2018-10-17T16:15:59.960Z,2.70
2018-10-17T16:18:28.547Z,3.33
2018-10-17T16:20:56.663Z,3.30
2018-10-17T16:23:24.970Z,2.93
2018-10-17T16:25:53.176Z,2.80
2018-10-17T16:28:21.319Z,3.30
2018-10-17T16:30:49.592Z,3.03
2018-10-17T16:33:17.822Z,3.40
2018-10-17T16:35:46.338Z,2.90
2018-10-17T16:38:15.050Z,3.10
2018-10-17T16:40:44.190Z,3.20
2018-10-17T16:43:12.636Z,3.23
2018-10-17T16:45:41.173Z,3.17
2018-10-17T16:48:10.030Z,3.20
2018-10-17T16:50:38.589Z,3.07
2018-10-17T16:53:07.115Z,3.10
2018-10-17T16:55:35.894Z,3.10
2018-10-17T16:58:04.644Z,2.80
2018-10-17T17:00:33.450Z,3.40
2018-10-17T17:03:02.063Z,3.20
2018-10-17T17:05:30.432Z,3.57
2018-10-17T17:07:59.762Z,3.30
2018-10-17T17:10:28.307Z,3.40
2018-10-17T17:12:56.795Z,3.33
2018-10-17T17:15:25.131Z,3.50
2018-10-17T17:17:53.695Z,3.30
2018-10-17T17:20:22.128Z,2.90
2018-10-17T17:22:50.856Z,2.97
2018-10-17T17:25:19.542Z,3.03
2018-10-17T17:27:48.324Z,3.30
2018-10-17T17:30:19.265Z,3.47
2018-10-17T17:32:48.711Z,2.90
2018-10-17T17:35:17.420Z,2.90
2018-10-17T17:37:45.819Z,3.73
2018-10-17T17:40:14.851Z,3.13
2018-10-17T17:42:43.409Z,3.57
2018-10-17T17:45:18.352Z,3.43
2018-10-17T17:47:47.702Z,3.50
2018-10-17T17:50:16.198Z,3.00
2018-10-17T17:52:44.473Z,3.63
2018-10-17T17:55:12.971Z,2.93
2018-10-17T17:57:46.408Z,3.40
2018-10-17T18:00:16.499Z,3.30
2018-10-17T18:02:45.076Z,3.27
2018-10-17T18:05:13.400Z,3.40
2018-10-17T18:07:41.826Z,4.10
2018-10-17T18:10:10.636Z,4.63
2018-10-17T18:12:39.044Z,4.40
2018-10-17T18:15:07.963Z,3.60
2018-10-17T18:17:36.425Z,3.20
2018-10-17T18:20:05.433Z,3.43
2018-10-17T18:22:34.390Z,3.33
2018-10-17T18:25:03.328Z,3.13
2018-10-17T18:27:31.918Z,3.23
2018-10-17T18:30:00.419Z,3.30
2018-10-17T18:32:28.868Z,3.57
2018-10-17T18:34:57.693Z,3.70
2018-10-17T18:37:26.256Z,4.47
2018-10-17T18:39:54.853Z,4.90
2018-10-17T18:42:23.442Z,4.30
2018-10-17T18:44:52.091Z,4.87
2018-10-17T18:47:20.558Z,3.77
2018-10-17T18:49:48.978Z,4.33
2018-10-17T18:52:17.360Z,4.87
2018-10-17T18:54:45.776Z,4.60
2018-10-17T18:57:14.236Z,4.63
2018-10-17T18:59:43.381Z,4.87
2018-10-17T19:02:11.885Z,4.40
2018-10-17T19:04:40.331Z,4.60
2018-10-17T19:07:09.147Z,5.27
2018-10-17T19:09:37.756Z,5.37
2018-10-17T19:12:06.854Z,5.23
2018-10-17T19:14:35.662Z,5.07
2018-10-17T19:17:04.483Z,5.23
2018-10-17T19:19:33.172Z,4.50
2018-10-17T19:22:01.649Z,5.60
2018-10-17T19:24:30.203Z,6.00
2018-10-17T19:26:58.596Z,4.60
2018-10-17T19:29:27.393Z,5.83
2018-10-17T19:31:56.990Z,5.60
2018-10-17T19:34:25.361Z,5.30
2018-10-17T19:36:53.791Z,4.83
2018-10-17T19:39:22.302Z,5.47
2018-10-17T19:41:50.729Z,5.23
2018-10-17T19:44:19.042Z,6.10
2018-10-17T19:46:47.439Z,4.93
2018-10-17T19:49:15.950Z,5.40
2018-10-17T19:51:44.318Z,5.30
2018-10-17T19:54:12.720Z,5.43
2018-10-17T19:56:41.260Z,5.00
2018-10-17T19:59:09.887Z,5.17
2018-10-17T20:01:38.552Z,5.70
2018-10-17T20:04:07.418Z,5.70
2018-10-17T20:06:35.937Z,6.40
2018-10-17T20:09:06.649Z,6.17
2018-10-17T20:11:35.981Z,6.00
2018-10-17T20:14:04.719Z,5.50
2018-10-17T20:16:33.450Z,5.60
2018-10-17T20:19:01.920Z,5.40
2018-10-17T20:21:30.621Z,5.33
2018-10-17T20:23:59.185Z,6.00
2018-10-17T20:26:27.711Z,4.73
2018-10-17T20:28:56.205Z,5.90
2018-10-17T20:31:24.819Z,5.93
2018-10-17T20:33:53.243Z,5.53
2018-10-17T20:36:21.949Z,6.13
2018-10-17T20:38:50.278Z,5.53
2018-10-17T20:41:18.739Z,5.57
2018-10-17T20:43:47.145Z,5.50
2018-10-17T20:46:15.483Z,7.13
2018-10-17T20:48:44.061Z,5.77
2018-10-17T20:51:12.530Z,5.07
2018-10-17T20:53:41.267Z,6.50
2018-10-17T20:56:10.052Z,6.63
2018-10-17T20:58:39.161Z,6.33
2018-10-17T21:01:07.724Z,6.50
2018-10-17T21:03:36.211Z,6.33
2018-10-17T21:06:05.013Z,7.03
2018-10-17T21:08:33.456Z,6.10
2018-10-17T21:11:01.810Z,7.47
2018-10-17T21:13:30.483Z,6.77
2018-10-17T21:15:59.233Z,6.73
2018-10-17T21:18:27.762Z,6.67
2018-10-17T21:20:56.358Z,6.70
2018-10-17T21:23:24.684Z,6.13
2018-10-17T21:25:52.995Z,6.20
2018-10-17T21:28:21.271Z,6.57
2018-10-17T21:30:49.572Z,6.57
2018-10-17T21:33:18.153Z,6.67
2018-10-17T21:35:46.556Z,6.50
2018-10-17T21:38:15.440Z,6.37
2018-10-17T21:40:43.671Z,6.63
2018-10-17T21:43:12.259Z,6.40
2018-10-17T21:45:40.620Z,6.40
2018-10-17T21:48:08.898Z,6.90
2018-10-17T21:50:37.272Z,6.77
2018-10-17T21:53:06.233Z,5.97
2018-10-17T21:55:34.718Z,6.93
2018-10-17T21:58:03.269Z,6.70
2018-10-17T22:00:32.019Z,6.97
2018-10-17T22:03:00.386Z,6.00
2018-10-17T22:05:28.989Z,6.10
2018-10-17T22:07:57.330Z,6.47
2018-10-17T22:10:25.637Z,7.00
2018-10-17T22:12:53.990Z,7.30
2018-10-17T22:15:22.389Z,6.80
2018-10-17T22:17:50.674Z,6.50
2018-10-17T22:20:18.975Z,6.73
2018-10-17T22:22:47.434Z,6.77
2018-10-17T22:25:15.720Z,7.17
2018-10-17T22:27:44.080Z,7.43
2018-10-17T22:30:12.417Z,6.20
2018-10-17T22:32:40.729Z,6.23
2018-10-17T22:35:08.904Z,7.00
2018-10-17T22:37:37.066Z,6.47
2018-10-17T22:40:05.667Z,6.07
2018-10-17T22:42:33.979Z,7.23
2018-10-17T22:45:02.272Z,6.73
2018-10-17T22:47:30.741Z,6.43
2018-10-17T22:49:59.112Z,6.70
2018-10-17T22:52:27.413Z,6.20
2018-10-17T22:54:56.000Z,7.23
2018-10-17T22:57:24.344Z,7.00
2018-10-17T22:59:52.594Z,7.10
2018-10-17T23:02:20.899Z,6.83
2018-10-17T23:04:49.132Z,6.50
2018-10-17T23:07:17.662Z,6.90
2018-10-17T23:09:45.884Z,6.57
2018-10-17T23:12:14.224Z,6.93
2018-10-17T23:14:42.527Z,7.07
2018-10-17T23:17:10.721Z,6.40
2018-10-17T23:19:39.456Z,7.00
2018-10-17T23:22:07.874Z,7.10
2018-10-17T23:24:36.172Z,7.27
2018-10-17T23:27:04.582Z,7.17
2018-10-17T23:29:32.846Z,7.20
2018-10-17T23:32:01.226Z,7.40
2018-10-17T23:34:29.819Z,6.73
2018-10-17T23:36:58.057Z,7.70
2018-10-17T23:39:26.829Z,7.07
2018-10-17T23:41:55.138Z,6.57
2018-10-17T23:44:23.434Z,7.10
2018-10-17T23:46:51.595Z,6.37
2018-10-17T23:49:19.734Z,7.63
2018-10-17T23:51:47.846Z,7.10
2018-10-17T23:54:16.091Z,8.10
2018-10-17T23:56:44.076Z,7.37
2018-10-17T23:59:12.212Z,7.17
